createdAt,value
2023-02-12T00:01:20.361Z,86.27
2023-02-12T00:03:47.508Z,86.08
2023-02-12T00:06:16.001Z,86.06
2023-02-12T00:08:46.497Z,85.89
2023-02-12T00:11:19.463Z,85.66
2023-02-12T00:13:50.978Z,85.57
2023-02-12T00:16:21.799Z,85.38
2023-02-12T00:18:48.855Z,85.95
2023-02-12T00:21:18.496Z,85.91
2023-02-12T00:23:45.287Z,85.46
2023-02-12T00:26:14.804Z,85.71
2023-02-12T00:28:41.752Z,86.28
2023-02-12T00:31:10.890Z,86.97
2023-02-12T00:33:38.204Z,86.48
2023-02-12T00:38:36.179Z,87.07
2023-02-12T00:41:03.089Z,86.41
2023-02-12T00:43:30.060Z,86.32
2023-02-12T00:45:57.309Z,86.46
2023-02-12T00:48:24.545Z,86.81
2023-02-12T00:50:51.358Z,86.47
2023-02-12T00:53:18.385Z,86.72
2023-02-12T00:55:48.381Z,87.04
2023-02-12T00:58:18.863Z,87.02
2023-02-12T01:00:48.470Z,87.10
2023-02-12T01:03:15.710Z,86.79
2023-02-12T01:05:42.908Z,86.63
2023-02-12T01:08:13.027Z,86.87
2023-02-12T01:10:44.013Z,86.88
2023-02-12T01:13:15.314Z,86.76
2023-02-12T01:15:42.739Z,86.34
2023-02-12T01:18:11.044Z,86.81
2023-02-12T01:20:40.254Z,86.88
2023-02-12T01:23:09.681Z,87.00
2023-02-12T01:25:38.899Z,86.89
2023-02-12T01:28:10.355Z,86.43
2023-02-12T01:30:37.269Z,86.48
2023-02-12T01:33:09.918Z,86.68
2023-02-12T01:35:40.692Z,86.98
2023-02-12T01:40:34.269Z,86.78
2023-02-12T01:43:03.123Z,87.34
2023-02-12T01:45:46.588Z,86.99
2023-02-12T01:48:16.602Z,87.26
2023-02-12T01:50:45.991Z,87.01
2023-02-12T01:53:20.057Z,86.97
2023-02-12T01:55:55.889Z,87.07
2023-02-12T01:58:25.339Z,87.40
2023-02-12T02:00:52.609Z,87.38
2023-02-12T02:03:19.299Z,87.45
2023-02-12T02:05:49.278Z,87.54
2023-02-12T02:08:15.889Z,87.56
2023-02-12T02:10:42.985Z,87.30
2023-02-12T02:13:28.278Z,87.60
2023-02-12T02:16:00.344Z,88.03
2023-02-12T02:18:31.217Z,87.60
2023-02-12T02:21:12.393Z,87.75
2023-02-12T02:23:38.935Z,87.91
2023-02-12T02:26:42.405Z,87.52
2023-02-12T02:29:27.686Z,87.45
2023-02-12T02:32:06.093Z,87.84
2023-02-12T02:34:47.302Z,88.01
2023-02-12T02:37:54.793Z,87.73
2023-02-12T02:40:26.046Z,88.26
2023-02-12T02:43:03.274Z,88.16
2023-02-12T02:45:51.663Z,87.74
2023-02-12T02:48:32.272Z,87.88
2023-02-12T02:53:45.044Z,87.85
2023-02-12T02:56:17.614Z,88.10
2023-02-12T02:58:59.673Z,88.03
2023-02-12T03:01:41.123Z,88.17
2023-02-12T03:04:38.904Z,87.93
2023-02-12T03:07:17.250Z,88.38
2023-02-12T03:09:49.262Z,88.16
2023-02-12T03:12:23.430Z,87.91
2023-02-12T03:15:04.165Z,88.32
2023-02-12T03:17:35.278Z,88.08
2023-02-12T03:20:24.649Z,88.02
2023-02-12T03:22:56.511Z,88.41
2023-02-12T03:25:34.241Z,88.67
2023-02-12T03:28:09.782Z,88.45
2023-02-12T03:30:44.595Z,88.28
2023-02-12T03:33:36.961Z,88.38
2023-02-12T03:36:23.598Z,88.34
2023-02-12T03:38:55.375Z,88.86
2023-02-12T03:41:35.829Z,89.83
2023-02-12T03:44:39.595Z,88.77
2023-02-12T03:47:18.596Z,89.22
2023-02-12T03:49:54.220Z,89.03
2023-02-12T03:52:21.158Z,88.88
2023-02-12T03:54:47.964Z,89.22
2023-02-12T03:57:20.131Z,88.81
2023-02-12T03:59:50.170Z,88.89
2023-02-12T04:02:19.468Z,89.29
2023-02-12T04:04:47.569Z,89.44
2023-02-12T04:07:14.951Z,89.19
2023-02-12T04:09:41.683Z,89.09
2023-02-12T04:12:30.999Z,89.42
2023-02-12T04:17:40.601Z,89.62
2023-02-12T04:20:13.379Z,90.02
2023-02-12T04:23:15.660Z,89.52
2023-02-12T04:25:48.191Z,90.00
2023-02-12T04:31:20.584Z,90.08
2023-02-12T04:36:44.568Z,91.09
2023-02-12T04:39:18.746Z,91.32
2023-02-12T04:41:45.297Z,91.59
2023-02-12T04:44:19.366Z,91.04
2023-02-12T04:46:45.892Z,91.22
2023-02-12T04:49:20.581Z,91.37
2023-02-12T04:51:49.899Z,91.54
2023-02-12T04:54:19.408Z,91.71
2023-02-12T04:56:46.690Z,91.74
2023-02-12T05:01:41.183Z,92.14
2023-02-12T05:04:09.972Z,91.63
2023-02-12T05:06:37.877Z,92.20
2023-02-12T05:09:06.234Z,92.08
2023-02-12T05:11:32.949Z,92.05
2023-02-12T05:14:00.058Z,92.05
2023-02-12T05:16:26.960Z,92.23
2023-02-12T05:18:53.443Z,92.54
2023-02-12T05:21:20.007Z,92.52
2023-02-12T05:23:46.482Z,92.34
2023-02-12T05:26:16.436Z,92.29
2023-02-12T05:28:43.108Z,92.06
2023-02-12T05:31:13.612Z,92.30
2023-02-12T05:33:43.895Z,92.39
2023-02-12T05:36:13.759Z,92.46
2023-02-12T05:38:40.375Z,92.42
2023-02-12T05:41:10.086Z,92.73
2023-02-12T05:43:37.129Z,92.75
2023-02-12T05:46:06.521Z,93.17
2023-02-12T05:48:34.200Z,92.95
2023-02-12T05:51:13.764Z,93.22
2023-02-12T05:53:41.312Z,93.87
2023-02-12T05:56:17.565Z,93.98
2023-02-12T05:58:47.263Z,93.82
2023-02-12T06:01:20.280Z,94.51
2023-02-12T06:03:47.642Z,94.69
2023-02-12T06:06:15.318Z,95.29
2023-02-12T06:08:48.535Z,94.84
2023-02-12T06:11:16.768Z,95.05
2023-02-12T06:13:46.955Z,95.02
2023-02-12T06:16:20.002Z,94.98
2023-02-12T06:18:47.015Z,95.03
2023-02-12T06:21:14.153Z,95.40
2023-02-12T06:23:43.556Z,95.08
2023-02-12T06:26:10.558Z,95.37
2023-02-12T06:28:37.490Z,95.03
2023-02-12T06:31:04.990Z,96.08
2023-02-12T06:33:33.103Z,95.84
2023-02-12T06:36:03.968Z,95.89
2023-02-12T06:38:32.693Z,95.95
2023-02-12T06:41:02.470Z,96.36
2023-02-12T06:43:29.788Z,96.36
2023-02-12T06:45:57.053Z,96.30
2023-02-12T06:48:26.214Z,96.52
2023-02-12T06:50:53.169Z,96.43
2023-02-12T06:53:19.966Z,96.17
2023-02-12T06:55:46.788Z,96.41
2023-02-12T06:58:13.663Z,96.74
2023-02-12T07:00:41.921Z,97.17
2023-02-12T07:05:38.004Z,96.66
2023-02-12T07:08:05.198Z,96.70
2023-02-12T07:10:32.084Z,96.70
2023-02-12T07:12:58.875Z,97.28
2023-02-12T07:15:28.187Z,97.33
2023-02-12T07:18:35.539Z,97.04
2023-02-12T07:21:05.891Z,97.29
2023-02-12T07:23:33.714Z,96.87
2023-02-12T07:26:09.827Z,96.93
2023-02-12T07:28:52.582Z,97.06
2023-02-12T07:31:22.261Z,96.62
2023-02-12T07:36:24.086Z,97.07
2023-02-12T07:41:23.099Z,96.61
2023-02-12T07:46:42.366Z,96.24
2023-02-12T07:49:14.155Z,96.04
2023-02-12T07:51:41.511Z,95.48
2023-02-12T07:54:14.907Z,95.78
2023-02-12T07:56:44.660Z,95.76
2023-02-12T07:59:13.690Z,95.78
2023-02-12T08:01:53.886Z,95.57
2023-02-12T08:04:24.151Z,95.35
2023-02-12T08:07:10.220Z,95.16
2023-02-12T08:09:40.234Z,95.16
2023-02-12T08:14:34.930Z,95.13
2023-02-12T08:17:04.474Z,95.23
2023-02-12T08:19:31.453Z,94.91
2023-02-12T08:21:58.816Z,94.51
2023-02-12T08:24:26.221Z,94.49
2023-02-12T08:26:54.192Z,94.54
2023-02-12T08:29:31.369Z,94.29
2023-02-12T08:32:02.443Z,93.73
2023-02-12T08:34:37.051Z,93.98
2023-02-12T08:37:08.506Z,93.81
2023-02-12T08:39:35.499Z,93.48
2023-02-12T08:42:02.540Z,93.00
2023-02-12T08:44:35.768Z,92.60
2023-02-12T08:47:13.798Z,92.80
2023-02-12T08:50:07.665Z,92.99
2023-02-12T08:52:45.866Z,93.19
2023-02-12T08:55:19.877Z,93.12
2023-02-12T08:57:46.909Z,93.06
2023-02-12T09:00:14.442Z,93.09
2023-02-12T09:02:44.785Z,93.39
2023-02-12T09:05:16.925Z,93.30
2023-02-12T09:07:44.418Z,92.62
2023-02-12T09:10:24.517Z,92.26
2023-02-12T09:12:56.995Z,91.39
2023-02-12T09:15:23.942Z,91.49
2023-02-12T09:17:54.673Z,90.94
2023-02-12T09:20:22.030Z,90.74
2023-02-12T09:22:51.230Z,90.98
2023-02-12T09:25:23.116Z,90.06
2023-02-12T09:27:52.913Z,89.56
2023-02-12T09:30:25.357Z,87.61
2023-02-12T09:32:56.321Z,88.39
2023-02-12T09:35:31.625Z,87.77
2023-02-12T09:37:58.794Z,87.46
2023-02-12T09:40:42.190Z,87.80
2023-02-12T09:43:30.079Z,88.66
2023-02-12T09:46:47.387Z,87.24
2023-02-12T09:49:16.468Z,88.38
2023-02-12T09:51:54.079Z,87.25
2023-02-12T09:54:26.366Z,86.69
2023-02-12T09:57:03.714Z,86.49
2023-02-12T09:59:45.410Z,85.15
2023-02-12T10:02:19.648Z,83.55
2023-02-12T10:05:04.616Z,84.63
2023-02-12T10:07:40.156Z,85.63
2023-02-12T10:10:28.493Z,85.53
2023-02-12T10:13:04.413Z,85.60
2023-02-12T10:15:49.439Z,85.92
2023-02-12T10:18:26.249Z,85.95
2023-02-12T10:21:22.748Z,85.42
2023-02-12T10:24:35.203Z,85.84
2023-02-12T10:27:24.095Z,84.86
2023-02-12T10:29:52.217Z,84.21
2023-02-12T10:32:31.161Z,84.21
2023-02-12T10:34:59.850Z,85.75
2023-02-12T10:37:40.634Z,85.18
2023-02-12T10:40:26.492Z,85.97
2023-02-12T10:42:56.417Z,85.29
2023-02-12T10:45:35.712Z,84.46
2023-02-12T10:48:21.678Z,83.13
2023-02-12T10:53:42.121Z,84.48
2023-02-12T10:56:24.913Z,83.74
2023-02-12T10:58:55.973Z,82.45
2023-02-12T11:01:26.167Z,81.98
2023-02-12T11:03:55.332Z,81.82
2023-02-12T11:06:25.974Z,81.02
2023-02-12T11:08:59.725Z,81.48
2023-02-12T11:11:34.120Z,80.70
2023-02-12T11:14:06.298Z,81.70
2023-02-12T11:17:03.145Z,81.40
2023-02-12T11:19:32.589Z,82.64
2023-02-12T11:22:21.002Z,82.62
2023-02-12T11:25:04.995Z,82.57
2023-02-12T11:27:41.960Z,82.72
2023-02-12T11:30:23.007Z,83.28
2023-02-12T11:32:53.386Z,82.89
2023-02-12T11:35:29.710Z,83.19
2023-02-12T11:37:58.825Z,82.86
2023-02-12T11:40:31.439Z,83.09
2023-02-12T11:43:02.015Z,83.08
2023-02-12T11:45:42.030Z,83.79
2023-02-12T11:48:43.943Z,83.07
2023-02-12T11:53:51.752Z,83.71
2023-02-12T11:56:19.302Z,83.76
2023-02-12T11:58:47.941Z,83.93
2023-02-12T12:01:43.729Z,83.57
2023-02-12T12:04:17.986Z,83.57
2023-02-12T12:06:54.314Z,83.82
2023-02-12T12:09:39.857Z,82.90
2023-02-12T12:12:06.756Z,82.51
2023-02-12T12:15:08.893Z,82.18
2023-02-12T12:18:08.938Z,81.78
2023-02-12T12:21:15.505Z,81.70
2023-02-12T12:26:48.006Z,82.30
2023-02-12T12:29:28.834Z,83.04
2023-02-12T12:34:32.753Z,83.88
2023-02-12T12:37:12.445Z,84.05
2023-02-12T12:40:20.347Z,84.62
2023-02-12T12:42:56.454Z,84.29
2023-02-12T12:45:40.796Z,84.24
2023-02-12T12:48:35.841Z,84.64
2023-02-12T12:51:13.011Z,85.07
2023-02-12T12:56:38.906Z,84.45
2023-02-12T12:59:30.349Z,84.63
2023-02-12T13:02:32.143Z,84.64
2023-02-12T13:05:22.287Z,84.45
2023-02-12T13:08:22.730Z,85.38
2023-02-12T13:11:07.028Z,84.26
2023-02-12T13:13:45.981Z,84.46
2023-02-12T13:16:23.577Z,84.08
2023-02-12T13:19:01.653Z,84.12
2023-02-12T13:21:44.337Z,84.05
2023-02-12T13:24:39.032Z,83.98
2023-02-12T13:27:20.335Z,83.08
2023-02-12T13:29:59.241Z,83.79
2023-02-12T13:32:32.730Z,83.02
2023-02-12T13:35:01.362Z,83.23
2023-02-12T13:37:57.267Z,82.98
2023-02-12T13:46:04.477Z,83.21
2023-02-12T13:48:43.458Z,82.63
2023-02-12T13:51:51.192Z,82.86
2023-02-12T13:54:56.747Z,82.32
2023-02-12T14:00:51.935Z,82.56
2023-02-12T14:03:34.757Z,82.19
2023-02-12T14:06:29.334Z,81.96
2023-02-12T14:09:27.179Z,81.91
2023-02-12T14:12:00.126Z,81.86
2023-02-12T14:14:36.810Z,80.95
2023-02-12T14:17:38.527Z,80.99
2023-02-12T14:23:03.201Z,80.89
2023-02-12T14:25:33.982Z,80.95
2023-02-12T14:28:11.079Z,81.03
2023-02-12T14:30:59.086Z,81.46
2023-02-12T14:33:31.145Z,81.74
2023-02-12T14:36:40.325Z,81.51
2023-02-12T14:44:48.929Z,84.56
2023-02-12T14:47:45.044Z,84.31
2023-02-12T14:50:24.249Z,83.75
2023-02-12T14:55:50.170Z,85.58
2023-02-12T15:00:49.603Z,85.03
2023-02-12T15:06:12.288Z,84.81
2023-02-12T15:09:03.254Z,84.90
2023-02-12T15:11:33.096Z,84.18
2023-02-12T15:14:31.305Z,84.50
2023-02-12T15:17:24.919Z,84.01
2023-02-12T15:20:06.199Z,84.65
2023-02-12T15:22:51.113Z,84.56
2023-02-12T15:25:35.214Z,85.09
2023-02-12T15:30:49.061Z,85.17
2023-02-12T15:33:33.014Z,85.34
2023-02-12T15:36:11.272Z,85.46
2023-02-12T15:38:59.184Z,85.50
2023-02-12T15:41:30.166Z,85.51
2023-02-12T15:43:57.433Z,85.81
2023-02-12T15:46:28.028Z,86.43
2023-02-12T15:49:19.654Z,86.82
2023-02-12T15:51:49.079Z,86.82
2023-02-12T15:54:20.105Z,87.40
2023-02-12T15:56:50.220Z,87.06
2023-02-12T15:59:29.214Z,87.38
2023-02-12T16:02:02.666Z,87.50
2023-02-12T16:04:33.402Z,87.76
2023-02-12T16:07:01.663Z,87.93
2023-02-12T16:09:37.807Z,88.10
2023-02-12T16:12:17.338Z,88.63
2023-02-12T16:14:53.043Z,89.16
2023-02-12T16:17:33.677Z,89.06
2023-02-12T16:20:04.377Z,89.48
2023-02-12T16:22:49.769Z,90.09
2023-02-12T16:25:27.857Z,90.10
2023-02-12T16:30:39.502Z,90.73
2023-02-12T16:34:00.812Z,90.75
2023-02-12T16:36:32.047Z,90.76
2023-02-12T16:39:12.054Z,91.16
2023-02-12T16:41:55.236Z,91.50
2023-02-12T16:44:27.952Z,91.49
2023-02-12T16:47:31.308Z,92.19
2023-02-12T16:50:02.336Z,92.35
2023-02-12T16:52:43.364Z,92.70
2023-02-12T16:55:18.102Z,92.94
2023-02-12T16:57:45.722Z,92.71
2023-02-12T17:00:17.281Z,93.19
2023-02-12T17:02:44.260Z,93.07
2023-02-12T17:05:17.018Z,93.17
2023-02-12T17:07:46.173Z,93.17
2023-02-12T17:12:49.604Z,93.11
2023-02-12T17:15:27.208Z,93.46
2023-02-12T17:17:57.159Z,93.16
2023-02-12T17:20:28.364Z,93.72
2023-02-12T17:22:57.971Z,94.08
2023-02-12T17:25:25.529Z,93.86
2023-02-12T17:27:54.831Z,93.78
2023-02-12T17:30:22.117Z,93.55
2023-02-12T17:32:51.173Z,93.86
2023-02-12T17:37:52.023Z,93.19
2023-02-12T17:40:19.385Z,93.04
2023-02-12T17:42:49.101Z,93.00
2023-02-12T17:47:58.991Z,92.37
2023-02-12T17:50:31.667Z,92.14
2023-02-12T17:53:20.522Z,93.11
2023-02-12T17:55:52.163Z,93.27
2023-02-12T17:58:30.549Z,92.45
2023-02-12T18:00:58.216Z,92.52
2023-02-12T18:03:27.448Z,92.74
2023-02-12T18:05:54.774Z,92.19
2023-02-12T18:08:34.432Z,92.14
2023-02-12T18:11:10.171Z,92.29
2023-02-12T18:13:38.108Z,91.84
2023-02-12T18:16:58.694Z,92.06
2023-02-12T18:19:33.392Z,91.99
2023-02-12T18:22:10.222Z,91.68
2023-02-12T18:24:47.065Z,91.58
2023-02-12T18:27:34.040Z,92.01
2023-02-12T18:30:04.960Z,91.77
2023-02-12T18:32:32.201Z,91.71
2023-02-12T18:35:01.231Z,91.69
2023-02-12T18:37:29.078Z,91.38
2023-02-12T18:40:03.304Z,91.49
2023-02-12T18:42:35.261Z,91.88
2023-02-12T18:45:31.005Z,91.79
2023-02-12T18:48:09.377Z,92.31
2023-02-12T18:50:45.194Z,92.08
2023-02-12T18:53:25.089Z,92.17
2023-02-12T18:56:09.170Z,91.90
2023-02-12T18:58:43.632Z,91.88
2023-02-12T19:03:57.550Z,91.61
2023-02-12T19:06:40.724Z,92.09
2023-02-12T19:14:39.039Z,92.01
2023-02-12T19:17:08.970Z,91.49
2023-02-12T19:20:07.331Z,91.40
2023-02-12T19:22:39.145Z,91.50
2023-02-12T19:25:13.341Z,91.70
2023-02-12T19:27:42.812Z,91.76
2023-02-12T19:30:28.350Z,91.77
2023-02-12T19:32:57.686Z,91.77
2023-02-12T19:35:24.591Z,91.63
2023-02-12T19:37:54.032Z,92.05
2023-02-12T19:40:25.435Z,91.48
2023-02-12T19:42:59.484Z,91.45
2023-02-12T19:45:34.000Z,91.66
2023-02-12T19:50:48.156Z,91.85
2023-02-12T19:53:22.143Z,91.71
2023-02-12T19:55:51.760Z,91.44
2023-02-12T19:58:18.663Z,92.09
2023-02-12T20:00:46.468Z,92.01
2023-02-12T20:06:10.738Z,91.82
2023-02-12T20:08:46.256Z,91.79
2023-02-12T20:13:58.276Z,91.85
2023-02-12T20:16:31.359Z,91.62
2023-02-12T20:19:07.498Z,91.28
2023-02-12T20:21:37.383Z,91.64
2023-02-12T20:24:04.874Z,91.74
2023-02-12T20:26:33.754Z,91.38
2023-02-12T20:29:06.689Z,91.72
2023-02-12T20:31:43.286Z,91.71
2023-02-12T20:34:15.842Z,92.04
2023-02-12T20:41:51.468Z,91.91
2023-02-12T20:44:29.921Z,91.76
2023-02-12T20:49:43.541Z,92.15
2023-02-12T20:52:13.548Z,91.54
2023-02-12T20:54:42.882Z,91.40
2023-02-12T20:57:16.845Z,91.67
2023-02-12T20:59:43.855Z,91.39
2023-02-12T21:05:09.688Z,91.48
2023-02-12T21:07:36.550Z,91.75
2023-02-12T21:10:04.830Z,91.58
2023-02-12T21:12:31.900Z,91.77
2023-02-12T21:14:58.940Z,91.74
2023-02-12T21:17:26.055Z,91.57
2023-02-12T21:19:53.037Z,91.68
2023-02-12T21:22:21.488Z,91.31
2023-02-12T21:24:56.064Z,91.68
2023-02-12T21:27:23.102Z,91.55
2023-02-12T21:29:50.103Z,91.58
2023-02-12T21:32:20.390Z,92.15
2023-02-12T21:34:48.874Z,91.83
2023-02-12T21:42:37.283Z,91.72
2023-02-12T21:45:08.393Z,92.00
2023-02-12T21:47:38.263Z,91.61
2023-02-12T21:50:08.488Z,91.48
2023-02-12T21:52:44.590Z,91.90
2023-02-12T21:57:48.179Z,91.67
2023-02-12T22:00:20.275Z,91.91
2023-02-12T22:02:47.173Z,92.29
2023-02-12T22:05:14.187Z,91.94
2023-02-12T22:07:41.071Z,91.74
2023-02-12T22:10:09.551Z,91.87
2023-02-12T22:12:46.794Z,92.37
2023-02-12T22:15:13.885Z,92.50
2023-02-12T22:17:41.239Z,93.06
2023-02-12T22:20:11.140Z,92.89
2023-02-12T22:22:38.415Z,92.41
2023-02-12T22:25:05.689Z,92.50
2023-02-12T22:27:37.567Z,92.84
2023-02-12T22:30:13.559Z,92.74
2023-02-12T22:32:47.888Z,93.17
2023-02-12T22:35:15.148Z,93.10
2023-02-12T22:37:49.597Z,92.79
2023-02-12T22:40:16.494Z,93.11
2023-02-12T22:42:43.529Z,92.86
2023-02-12T22:45:10.567Z,93.31
2023-02-12T22:47:42.570Z,93.30
2023-02-12T22:50:12.587Z,93.53
2023-02-12T22:52:40.668Z,93.91
2023-02-12T22:55:07.662Z,94.20
2023-02-12T22:57:37.083Z,94.18
2023-02-12T23:00:08.447Z,94.26
2023-02-12T23:02:39.200Z,94.63
2023-02-12T23:05:06.010Z,94.87
2023-02-12T23:07:41.361Z,95.35
2023-02-12T23:10:08.990Z,95.80
2023-02-12T23:12:43.020Z,96.05
2023-02-12T23:15:10.507Z,96.04
2023-02-12T23:17:37.719Z,96.37
2023-02-12T23:20:14.579Z,95.84
2023-02-12T23:22:41.720Z,96.20
2023-02-12T23:25:08.630Z,95.72
2023-02-12T23:27:35.517Z,95.73
2023-02-12T23:30:02.440Z,95.48
2023-02-12T23:35:00.327Z,95.94
2023-02-12T23:37:27.422Z,95.95
2023-02-12T23:40:01.699Z,95.99
2023-02-12T23:42:28.821Z,96.26
2023-02-12T23:44:56.983Z,95.51
2023-02-12T23:47:27.195Z,95.30
2023-02-12T23:49:56.055Z,95.45
2023-02-12T23:52:23.161Z,95.98
2023-02-12T23:54:52.314Z,95.43
2023-02-12T23:57:19.460Z,95.29
2023-02-12T23:59:47.623Z,95.58
